Mercury — 3FFC7 — position and weather

sailwx.info

Track history (hours):
 
Tides and Currents Weather Stations Pressure Air Temp Water Temp Dewpoint Dewpoint Depression Visibility Wind Speed Wind Dir Waves Ship Positions

Mercury

Operator: Royal Caribbean Cruises Ltd

Last reported at 2018-Feb-26 00:56 UTC. Time now 2018-Feb-26 01:15 UTC.
Position N 35°25' E 139°41'.

Length 199 m; draft 8.3 m.

Type: Cargo ship. MMSI: 371862000.

Date/timePositionNaut miles runAvg speedWind from/ knotsBaromVisibWave heightAir tempDewpointWater temp
2018-Feb-26 00:56N 35°25' E 139°41'0 0.0
2018-Feb-26 00:29N 35°25' E 139°41'0 0.0
2018-Feb-25 23:59N 35°25' E 139°41'0 0.1
2018-Feb-25 23:29N 35°25' E 139°41'0 0.1
2018-Feb-25 22:59N 35°25' E 139°41'0 0.0
2018-Feb-25 22:29N 35°25' E 139°41'1 1.8
2018-Feb-25 22:00N 35°25' E 139°42'4 8.6
2018-Feb-25 21:30N 35°21' E 139°43'612.5
2018-Feb-25 21:00N 35°16' E 139°47'611.3
2018-Feb-25 20:30N 35°10' E 139°47'5 9.2
2018-Feb-25 20:00N 35°05' E 139°46'611.5
2018-Feb-25 19:30N 34°60' E 139°43'611.8
2018-Feb-25 19:00N 34°54' E 139°42'612.0
2018-Feb-25 18:28N 34°48' E 139°39'512.0
2018-Feb-25 18:00N 34°43' E 139°36'4 7.3
2018-Feb-25 17:26N 34°39' E 139°34'1 1.5
2018-Feb-25 16:55N 34°39' E 139°33'512.0
2018-Feb-25 16:30N 34°37' E 139°27'813.7
2018-Feb-25 15:58N 34°35' E 139°19'613.7
2018-Feb-25 15:30N 34°34' E 139°11'713.9
2018-Feb-25 15:00N 34°32' E 139°03'714.0
2018-Feb-25 14:30N 34°30' E 138°55'714.2
2018-Feb-25 14:00N 34°29' E 138°46'714.2
2018-Feb-25 13:29N 34°28' E 138°38'714.3
2018-Feb-25 13:00N 34°27' E 138°30'715.0
2018-Feb-25 12:30N 34°26' E 138°21'714.8
2018-Feb-25 12:00N 34°24' E 138°12'815.2
2018-Feb-25 11:30N 34°23' E 138°03'815.0
2018-Feb-25 11:00N 34°23' E 137°53'714.7
2018-Feb-25 10:30N 34°23' E 137°45'914.8
2018-Feb-25 09:54N 34°24' E 137°34'815.3
2018-Feb-25 09:22N 34°25' E 137°24'515.0
2018-Feb-25 09:00N 34°25' E 137°17'815.1
2018-Feb-25 08:30N 34°29' E 137°09'713.6
2018-Feb-25 08:00N 34°32' E 137°02'611.2
2018-Feb-25 07:30N 34°37' E 136°58'715.0
2018-Feb-25 07:01N 34°41' E 137°06'814.7
2018-Feb-25 06:28N 34°44' E 137°15'4 0.4
2018-Feb-24 22:19N 34°44' E 137°19'0 0.6
2018-Feb-24 22:00N 34°44' E 137°19'4 7.2
2018-Feb-24 21:28N 34°44' E 137°14'715.0
2018-Feb-24 21:01N 34°41' E 137°06'816.1
2018-Feb-24 20:31N 34°36' E 136°58'612.7
2018-Feb-24 20:00N 34°32' E 137°03'4 8.9
2018-Feb-24 19:30N 34°27' E 137°04'5 9.1
2018-Feb-24 18:59N 34°22' E 137°03'1812.6
2018-Feb-24 17:33N 34°05' E 136°56'1814.2
2018-Feb-24 16:18N 33°51' E 136°43'1515.1
2018-Feb-24 15:18N 33°41' E 136°30'6513.5
2018-Feb-24 10:31N 33°27' E 135°14'217.3
2018-Feb-24 10:25N 33°28' E 135°12'916.6
2018-Feb-24 09:54N 33°35' E 135°07'717.5
2018-Feb-24 09:30N 33°41' E 135°03'917.2
2018-Feb-24 09:00N 33°49' E 134°59'816.8
2018-Feb-24 08:30N 33°57' E 134°56'815.1
2018-Feb-24 08:00N 34°05' E 134°58'713.6
2018-Feb-24 07:30N 34°11' E 134°58'510.4
2018-Feb-24 07:00N 34°17' E 134°58'816.3
2018-Feb-24 06:31N 34°24' E 135°02'917.7
2018-Feb-24 06:00N 34°30' E 135°10'917.4
2018-Feb-24 05:30N 34°36' E 135°17'5 9.4
2018-Feb-24 05:00N 34°41' E 135°18'0 0.4
2018-Feb-24 04:29N 34°41' E 135°17'0 0.0
2018-Feb-24 03:59N 34°41' E 135°17'0 0.1
2018-Feb-24 03:29N 34°41' E 135°17'0 0.1
2018-Feb-24 02:59N 34°41' E 135°17'0 0.1
2018-Feb-24 02:29N 34°41' E 135°17'0 0.1
2018-Feb-24 01:59N 34°41' E 135°17'0 0.0
2018-Feb-24 01:29N 34°41' E 135°17'0 0.0
2018-Feb-24 00:59N 34°41' E 135°17'0 0.0
2018-Feb-24 00:29N 34°41' E 135°17'0 0.0
2018-Feb-23 23:59N 34°41' E 135°17'0 0.0
2018-Feb-23 23:29N 34°41' E 135°17'0 0.1
2018-Feb-23 22:59N 34°41' E 135°17'0 1.0
2018-Feb-23 22:31N 34°41' E 135°18'2 4.9
2018-Feb-23 22:00N 34°39' E 135°18'0 0.4
2018-Feb-23 21:29N 34°38' E 135°18'0 0.0
2018-Feb-23 20:59N 34°38' E 135°18'0 0.0
2018-Feb-23 20:29N 34°38' E 135°18'0 0.0
2018-Feb-23 19:59N 34°38' E 135°18'0 0.0
2018-Feb-23 19:29N 34°38' E 135°18'0 0.0
2018-Feb-23 18:59N 34°38' E 135°18'0 0.0
2018-Feb-23 18:29N 34°38' E 135°18'0 0.0
2018-Feb-23 17:59N 34°38' E 135°18'0 0.0
2018-Feb-23 17:29N 34°38' E 135°18'0 0.0
2018-Feb-23 16:59N 34°38' E 135°18'0 0.0
2018-Feb-23 16:29N 34°38' E 135°18'0 0.0
2018-Feb-23 15:59N 34°38' E 135°18'0 0.0
2018-Feb-23 15:29N 34°38' E 135°18'0 0.0
2018-Feb-23 14:59N 34°38' E 135°18'0 0.0
2018-Feb-23 14:29N 34°38' E 135°18'0 0.0
2018-Feb-23 13:59N 34°38' E 135°18'0 0.0
2018-Feb-23 13:29N 34°38' E 135°18'0 0.0
2018-Feb-23 12:59N 34°38' E 135°18'0 0.0
2018-Feb-23 12:29N 34°38' E 135°18'0 0.0
2018-Feb-23 11:56N 34°38' E 135°18'0 0.0
2018-Feb-23 11:29N 34°38' E 135°18'0 0.1
2018-Feb-23 10:59N 34°38' E 135°18'0 0.0
2018-Feb-23 10:29N 34°38' E 135°18'0 0.0
2018-Feb-23 09:59N 34°38' E 135°18'0 0.0
2018-Feb-23 09:29N 34°38' E 135°18'0 0.1
2018-Feb-23 09:00N 34°38' E 135°18'3 5.5
2018-Feb-23 08:30N 34°36' E 135°16'5 9.7
2018-Feb-23 08:00N 34°35' E 135°10'510.1
2018-Feb-23 07:30N 34°35' E 135°04'815.3
2018-Feb-23 07:00N 34°36' E 134°55'918.7
2018-Feb-23 06:30N 34°32' E 134°45'918.8
2018-Feb-23 06:00N 34°28' E 134°34'919.0
2018-Feb-23 05:30N 34°25' E 134°23'918.0
2018-Feb-23 05:00N 34°24' E 134°12'7314.4
2018-Feb-22 23:55N 34°08' E 132°46'613.6
2018-Feb-22 23:30N 34°05' E 132°40'714.3
2018-Feb-22 23:00N 34°02' E 132°32'713.0
2018-Feb-22 22:30N 34°04' E 132°25'814.9
2018-Feb-22 22:00N 34°11' E 132°20'714.5
2018-Feb-22 21:30N 34°18' E 132°22'2 4.3
2018-Feb-22 21:00N 34°20' E 132°23'0 0.1
2018-Feb-22 20:30N 34°20' E 132°23'0 0.0
2018-Feb-22 20:00N 34°20' E 132°23'0 0.0
2018-Feb-22 19:27N 34°20' E 132°23'0 0.0
2018-Feb-22 19:00N 34°20' E 132°23'0 0.0
2018-Feb-22 18:30N 34°20' E 132°23'0 0.0
2018-Feb-22 18:00N 34°20' E 132°23'0 0.0
2018-Feb-22 17:30N 34°20' E 132°23'0 0.0
2018-Feb-22 17:00N 34°20' E 132°23'0 0.0
2018-Feb-22 16:30N 34°20' E 132°23'0 0.0
2018-Feb-22 16:00N 34°20' E 132°23'0 0.0
2018-Feb-22 15:30N 34°20' E 132°23'0 0.0
2018-Feb-22 14:57N 34°20' E 132°23'0 0.0
2018-Feb-22 14:30N 34°20' E 132°23'0 0.0
2018-Feb-22 14:00N 34°20' E 132°23'0 0.0
2018-Feb-22 13:30N 34°20' E 132°23'0 0.0
2018-Feb-22 13:00N 34°20' E 132°23'0 0.0
2018-Feb-22 12:30N 34°20' E 132°23'0 0.0
2018-Feb-22 12:00N 34°20' E 132°23'0 0.0
2018-Feb-22 11:27N 34°20' E 132°23'0 0.0
2018-Feb-22 11:00N 34°20' E 132°23'0 0.0
2018-Feb-22 10:30N 34°20' E 132°23'0 0.0
2018-Feb-22 09:54N 34°20' E 132°23'0 0.0
2018-Feb-22 09:30N 34°20' E 132°23'0 0.0
2018-Feb-22 09:00N 34°20' E 132°23'0 0.0
2018-Feb-22 08:30N 34°20' E 132°23'0 0.0
2018-Feb-22 08:00N 34°20' E 132°23'0 0.0
2018-Feb-22 07:30N 34°20' E 132°23'0 0.0
2018-Feb-22 07:00N 34°20' E 132°23'0 0.0
2018-Feb-22 06:30N 34°20' E 132°23'0 0.0
2018-Feb-22 06:00N 34°20' E 132°23'0 0.0
2018-Feb-22 05:30N 34°20' E 132°23'0 0.0
2018-Feb-22 05:00N 34°20' E 132°23'0 0.0
2018-Feb-22 04:30N 34°20' E 132°23'0 0.0
2018-Feb-22 04:00N 34°20' E 132°23'0 0.1
2018-Feb-22 03:30N 34°20' E 132°23'0 0.0
2018-Feb-22 03:00N 34°20' E 132°23'0 0.0
2018-Feb-22 02:30N 34°20' E 132°23'0 0.1
2018-Feb-22 02:00N 34°20' E 132°23'0 0.0
2018-Feb-22 01:30N 34°20' E 132°23'0 0.0
2018-Feb-22 01:00N 34°20' E 132°23'0 0.0
2018-Feb-22 00:30N 34°20' E 132°23'0 0.0
2018-Feb-22 00:00N 34°20' E 132°23'0 0.1
2018-Feb-21 23:30N 34°20' E 132°23'0 0.0
2018-Feb-21 23:00N 34°20' E 132°23'0 0.0
2018-Feb-21 22:30N 34°20' E 132°23'0 0.0
2018-Feb-21 22:00N 34°20' E 132°23'0 0.0
2018-Feb-21 21:30N 34°20' E 132°23'0 0.0
2018-Feb-21 21:00N 34°20' E 132°23'0 0.0
2018-Feb-21 20:30N 34°20' E 132°23'0 0.0
2018-Feb-21 20:00N 34°20' E 132°23'0 0.0
2018-Feb-21 19:30N 34°20' E 132°23'0 0.0
2018-Feb-21 19:00N 34°20' E 132°23'0 0.0
2018-Feb-21 18:30N 34°20' E 132°23'0 0.0
2018-Feb-21 18:00N 34°20' E 132°23'0 0.0
2018-Feb-21 17:30N 34°20' E 132°23'0 0.0
2018-Feb-21 17:00N 34°20' E 132°23'0 0.0
2018-Feb-21 16:30N 34°20' E 132°23'0 0.0
2018-Feb-21 16:00N 34°20' E 132°23'0 0.0
2018-Feb-21 15:30N 34°20' E 132°23'0 0.0
2018-Feb-21 15:00N 34°20' E 132°23'0 0.0
2018-Feb-21 14:30N 34°20' E 132°23'0 0.0
2018-Feb-21 14:00N 34°20' E 132°23'0 0.0
2018-Feb-21 13:30N 34°20' E 132°23'0 0.0
2018-Feb-21 13:00N 34°20' E 132°23'0 0.0
2018-Feb-21 12:30N 34°20' E 132°23'0 0.0
2018-Feb-21 12:00N 34°20' E 132°23'0 0.0
2018-Feb-21 11:30N 34°20' E 132°23'0 0.0
2018-Feb-21 11:00N 34°20' E 132°23'0 0.0
2018-Feb-21 10:30N 34°20' E 132°23'0 0.1
2018-Feb-21 10:00N 34°20' E 132°23'0 0.0
2018-Feb-21 09:30N 34°20' E 132°23'0 0.0
2018-Feb-21 09:00N 34°20' E 132°23'0 0.1
2018-Feb-21 08:30N 34°20' E 132°23'0 0.0
2018-Feb-21 08:00N 34°20' E 132°23'0 0.1
2018-Feb-21 07:30N 34°20' E 132°23'0 0.0
2018-Feb-21 07:00N 34°20' E 132°23'0 0.0
2018-Feb-21 06:30N 34°20' E 132°23'0 0.1
2018-Feb-21 06:00N 34°20' E 132°23'0 0.0
2018-Feb-21 05:30N 34°20' E 132°23'0 0.0
2018-Feb-21 05:00N 34°20' E 132°23'0 0.0
2018-Feb-21 04:30N 34°20' E 132°23'0 0.1
2018-Feb-21 03:57N 34°20' E 132°23'1 2.2
2018-Feb-21 03:30N 34°21' E 132°22'0 0.4
2018-Feb-21 02:59N 34°21' E 132°22'0 0.0
2018-Feb-21 02:29N 34°21' E 132°22'0 0.0
2018-Feb-21 01:59N 34°21' E 132°22'0 0.0
2018-Feb-21 01:29N 34°21' E 132°22'0 0.0
2018-Feb-21 00:59N 34°21' E 132°22'0 0.0
2018-Feb-21 00:29N 34°21' E 132°22'0 0.0
2018-Feb-20 23:59N 34°21' E 132°22'0 0.0
2018-Feb-20 23:29N 34°21' E 132°22'0 0.0
2018-Feb-20 22:59N 34°21' E 132°22'0 0.0
2018-Feb-20 22:29N 34°21' E 132°22'0 0.0
2018-Feb-20 21:59N 34°21' E 132°22'0 0.2
2018-Feb-20 21:31N 34°21' E 132°22'1 2.4
2018-Feb-20 20:58N 34°20' E 132°23'0 0.0
2018-Feb-20 20:28N 34°20' E 132°23'0 0.0
2018-Feb-20 19:58N 34°20' E 132°23'0 0.0
2018-Feb-20 19:28N 34°20' E 132°23'0 0.0
2018-Feb-20 18:58N 34°20' E 132°23'0 0.0
2018-Feb-20 18:28N 34°20' E 132°23'0 0.0
2018-Feb-20 17:58N 34°20' E 132°23'0 0.0
2018-Feb-20 17:28N 34°20' E 132°23'0 0.0
2018-Feb-20 16:58N 34°20' E 132°23'0 0.0
2018-Feb-20 16:28N 34°20' E 132°23'0 0.0
2018-Feb-20 15:58N 34°20' E 132°23'0 0.0
2018-Feb-20 15:28N 34°20' E 132°23'0 0.0
2018-Feb-20 14:58N 34°20' E 132°23'0 0.0
2018-Feb-20 14:28N 34°20' E 132°23'0 0.0
2018-Feb-20 14:00N 34°20' E 132°23'3 5.7
2018-Feb-20 13:30N 34°17' E 132°21'510.2
2018-Feb-20 13:00N 34°12' E 132°21'4 7.4
2018-Feb-20 12:30N 34°08' E 132°22'1016.9
2018-Feb-20 11:56N 34°01' E 132°30'410.3
2018-Feb-20 11:31N 33°59' E 132°35'714.0
2018-Feb-20 11:01N 33°52' E 132°31'1118.1
2018-Feb-20 10:25N 33°45' E 132°21'818.8
2018-Feb-20 10:00N 33°42' E 132°12'917.9
2018-Feb-20 09:28N 33°42' E 132°01'818.5
2018-Feb-20 09:01N 33°45' E 131°51'918.8
2018-Feb-20 08:30N 33°51' E 131°42'918.0
2018-Feb-20 08:00N 33°57' E 131°35'3 6.8
2018-Feb-20 07:30N 34°00' E 131°34'0 0.0
2018-Feb-20 07:00N 34°00' E 131°34'0 0.0
2018-Feb-20 06:30N 34°00' E 131°34'0 0.0
2018-Feb-20 05:54N 34°00' E 131°34'0 0.0
2018-Feb-20 05:30N 34°00' E 131°34'0 0.0
2018-Feb-20 05:00N 34°00' E 131°34'0 0.0
2018-Feb-20 04:30N 34°00' E 131°34'0 0.0
2018-Feb-20 04:00N 34°00' E 131°34'0 0.0
2018-Feb-20 03:24N 34°00' E 131°34'0 0.0
2018-Feb-20 03:00N 34°00' E 131°34'0 0.0
2018-Feb-20 02:30N 34°00' E 131°34'0 0.0
2018-Feb-20 02:00N 34°00' E 131°34'0 0.0
2018-Feb-20 01:30N 34°00' E 131°34'0 0.0
2018-Feb-20 01:00N 34°00' E 131°34'0 0.0
2018-Feb-20 00:30N 34°00' E 131°34'0 0.0
2018-Feb-20 00:00N 34°00' E 131°34'0 0.0
2018-Feb-19 23:30N 34°00' E 131°34'0 0.0
2018-Feb-19 22:42N 34°00' E 131°34'0 0.0
2018-Feb-19 22:30N 34°00' E 131°34'0 0.5
2018-Feb-19 22:00N 34°00' E 131°34'3 6.4
2018-Feb-19 21:30N 33°57' E 131°33'510.8
2018-Feb-19 21:00N 33°54' E 131°38'510.9
2018-Feb-19 20:30N 33°51' E 131°44'611.8
2018-Feb-19 20:00N 33°48' E 131°50'612.8
2018-Feb-19 19:30N 33°44' E 131°56'713.3
2018-Feb-19 19:00N 33°42' E 132°04'813.5
2018-Feb-19 18:26N 33°43' E 132°13'614.3
2018-Feb-19 17:59N 33°45' E 132°20'714.3
2018-Feb-19 17:30N 33°50' E 132°27'815.0
2018-Feb-19 17:00N 33°54' E 132°34'612.6
2018-Feb-19 16:30N 34°01' E 132°34'713.5
2018-Feb-19 15:58N 34°03' E 132°26'714.6
2018-Feb-19 15:31N 34°09' E 132°21'714.1
2018-Feb-19 15:00N 34°16' E 132°21'510.2
2018-Feb-19 14:30N 34°20' E 132°25'2 4.2
2018-Feb-19 13:55N 34°20' E 132°28'0 0.0
2018-Feb-19 13:25N 34°20' E 132°28'0 0.1
2018-Feb-19 12:56N 34°20' E 132°28'0 0.0
2018-Feb-19 11:43N 34°20' E 132°28'0 0.0
2018-Feb-19 11:30N 34°20' E 132°28'0 0.0
2018-Feb-19 11:00N 34°20' E 132°28'0 0.0
2018-Feb-19 10:30N 34°20' E 132°28'0 0.0
2018-Feb-19 10:01N 34°20' E 132°28'0 0.1
2018-Feb-19 09:12N 34°20' E 132°28'0 0.0
2018-Feb-19 09:00N 34°20' E 132°28'0 0.2
2018-Feb-19 08:30N 34°20' E 132°28'2 0.2
2018-Feb-18 22:36N 34°21' E 132°29'0 0.6
2018-Feb-18 22:29N 34°21' E 132°29'1 2.3
2018-Feb-18 22:00N 34°20' E 132°28'3 6.1
2018-Feb-18 21:30N 34°20' E 132°25'4 8.5
2018-Feb-18 21:00N 34°16' E 132°21'5 9.9
2018-Feb-18 20:30N 34°12' E 132°20'612.0
2018-Feb-18 20:00N 34°06' E 132°24'713.1
2018-Feb-18 19:29N 34°01' E 132°29'510.6
2018-Feb-18 18:58N 33°58' E 132°34'612.0
2018-Feb-18 18:29N 33°53' E 132°31'714.1
2018-Feb-18 17:59N 33°47' E 132°26'714.0
2018-Feb-18 17:30N 33°42' E 132°21'1015.6
2018-Feb-18 16:52N 33°35' E 132°12'615.5
2018-Feb-18 16:30N 33°31' E 132°07'815.1
2018-Feb-18 16:00N 33°26' E 132°01'714.1
2018-Feb-18 15:30N 33°19' E 131°60'611.1
2018-Feb-18 14:56N 33°12' E 132°01'2 5.4
2018-Feb-18 14:30N 33°11' E 132°03'5 9.1
2018-Feb-18 13:56N 33°08' E 132°08'4 8.6
2018-Feb-18 13:29N 33°07' E 132°13'1211.3
2018-Feb-18 12:24N 32°55' E 132°18'22414.1
2018-Feb-17 20:28N 33°29' E 136°43'8916.8
2018-Feb-17 15:11N 34°12' E 138°16'813.2
2018-Feb-17 14:36N 34°16' E 138°24'312.5
2018-Feb-17 14:24N 34°17' E 138°27'612.4
2018-Feb-17 13:56N 34°20' E 138°33'612.1
2018-Feb-17 13:29N 34°23' E 138°39'612.3
2018-Feb-17 13:00N 34°25' E 138°45'611.7
2018-Feb-17 12:27N 34°28' E 138°52'512.0
2018-Feb-17 12:00N 34°31' E 138°58'612.0
2018-Feb-17 11:30N 34°34' E 139°04'713.7
2018-Feb-17 11:00N 34°37' E 139°11'713.8
2018-Feb-17 10:30N 34°37' E 139°20'713.6
2018-Feb-17 10:00N 34°37' E 139°28'714.4
2018-Feb-17 09:30N 34°43' E 139°33'815.9
2018-Feb-17 09:00N 34°50' E 139°37'816.6
2018-Feb-17 08:30N 34°58' E 139°40'816.9
2018-Feb-17 08:01N 35°06' E 139°43'613.0
2018-Feb-17 07:31N 35°12' E 139°46'510.9
2018-Feb-17 07:00N 35°18' E 139°44'612.2
2018-Feb-17 06:30N 35°23' E 139°42'5 9.1
2018-Feb-17 06:01N 35°28' E 139°42'1 1.4
2018-Feb-17 05:30N 35°28' E 139°41'0 0.0
2018-Feb-17 05:00N 35°28' E 139°41'0 0.0
2018-Feb-17 04:29N 35°28' E 139°41'0 0.0
2018-Feb-17 03:59N 35°28' E 139°41'0 0.0
2018-Feb-17 03:29N 35°28' E 139°41'0 0.0
2018-Feb-17 02:59N 35°28' E 139°41'0 0.0
2018-Feb-17 02:29N 35°28' E 139°41'0 0.0
2018-Feb-17 01:59N 35°28' E 139°41'0 0.0
2018-Feb-17 01:29N 35°28' E 139°41'0 0.0
2018-Feb-17 00:59N 35°28' E 139°41'0 0.0
2018-Feb-17 00:29N 35°28' E 139°41'0 0.0
2018-Feb-16 23:59N 35°28' E 139°41'0 0.0
2018-Feb-16 23:29N 35°28' E 139°41'0 0.0
2018-Feb-16 22:59N 35°28' E 139°41'0 0.0
2018-Feb-16 22:29N 35°28' E 139°41'0 0.0
2018-Feb-16 21:59N 35°28' E 139°41'0 0.0
2018-Feb-16 21:29N 35°28' E 139°41'0 0.0
2018-Feb-16 20:59N 35°28' E 139°41'0 0.0
2018-Feb-16 20:29N 35°28' E 139°41'0 0.0
2018-Feb-16 19:59N 35°28' E 139°41'0 0.0
2018-Feb-16 19:29N 35°28' E 139°41'0 0.0
2018-Feb-16 18:59N 35°28' E 139°41'0 0.0
2018-Feb-16 18:29N 35°28' E 139°41'0 0.0
2018-Feb-16 17:59N 35°28' E 139°41'0 0.0
2018-Feb-16 17:29N 35°28' E 139°41'0 0.0
2018-Feb-16 16:59N 35°28' E 139°41'0 0.0
2018-Feb-16 16:23N 35°28' E 139°41'0 0.0
2018-Feb-16 15:59N 35°28' E 139°41'0 0.0
2018-Feb-16 15:30N 35°28' E 139°41'0 0.0
2018-Feb-16 14:59N 35°28' E 139°41'0 0.0
2018-Feb-16 14:29N 35°28' E 139°41'0 0.0
2018-Feb-16 13:59N 35°28' E 139°41'0 0.0
2018-Feb-16 13:29N 35°28' E 139°41'0 0.0
2018-Feb-16 12:59N 35°28' E 139°41'0 0.0
2018-Feb-16 12:29N 35°28' E 139°41'0 0.0
2018-Feb-16 11:59N 35°28' E 139°41'0 0.0
2018-Feb-16 11:29N 35°28' E 139°41'0 0.0
2018-Feb-16 10:59N 35°28' E 139°41'0 0.0
2018-Feb-16 10:26N 35°28' E 139°41'0 0.0
2018-Feb-16 09:59N 35°28' E 139°41'0 0.0
2018-Feb-16 09:29N 35°28' E 139°41'0 0.0
2018-Feb-16 08:59N 35°28' E 139°41'0 0.0
2018-Feb-16 08:29N 35°28' E 139°41'0 0.0
2018-Feb-16 07:59N 35°28' E 139°41'0 0.0
2018-Feb-16 07:29N 35°28' E 139°41'0 0.0
2018-Feb-16 06:59N 35°28' E 139°41'0 0.0
2018-Feb-16 06:29N 35°28' E 139°41'0 0.0
2018-Feb-16 05:59N 35°28' E 139°41'0 0.0
2018-Feb-16 05:29N 35°28' E 139°41'1 1.7
2018-Feb-16 05:00N 35°28' E 139°42'3 5.7
2018-Feb-16 04:30N 35°26' E 139°45'2 4.5
2018-Feb-16 04:00N 35°24' E 139°46'612.3
2018-Feb-16 03:30N 35°19' E 139°44'612.6
2018-Feb-16 03:00N 35°13' E 139°47'5 9.0
2018-Feb-16 02:30N 35°08' E 139°47'3 6.7
2018-Feb-16 02:00N 35°05' E 139°45'5 9.5
2018-Feb-16 01:30N 35°01' E 139°43'611.3
2018-Feb-16 01:00N 34°55' E 139°41'  
Track history (hours):
 
Tides and Currents Weather Stations Pressure Air Temp Water Temp Dewpoint Dewpoint Depression Visibility Wind Speed Wind Dir Waves Ship Positions

Mercury

Operator: Royal Caribbean Cruises Ltd

Last reported at 2018-Feb-26 00:56 UTC. Time now 2018-Feb-26 01:15 UTC.
Position N 35°25' E 139°41'.

Length 199 m; draft 8.3 m.

Type: Cargo ship. MMSI: 371862000.

Date/timePositionNaut miles runAvg speedWind from/ knotsBaromVisibWave heightAir tempDewpointWater temp
2018-Feb-26 00:56N 35°25' E 139°41'0 0.0
2018-Feb-26 00:29N 35°25' E 139°41'0 0.0
2018-Feb-25 23:59N 35°25' E 139°41'0 0.1
2018-Feb-25 23:29N 35°25' E 139°41'0 0.1
2018-Feb-25 22:59N 35°25' E 139°41'0 0.0
2018-Feb-25 22:29N 35°25' E 139°41'1 1.8
2018-Feb-25 22:00N 35°25' E 139°42'4 8.6
2018-Feb-25 21:30N 35°21' E 139°43'612.5
2018-Feb-25 21:00N 35°16' E 139°47'611.3
2018-Feb-25 20:30N 35°10' E 139°47'5 9.2
2018-Feb-25 20:00N 35°05' E 139°46'611.5
2018-Feb-25 19:30N 34°60' E 139°43'611.8
2018-Feb-25 19:00N 34°54' E 139°42'612.0
2018-Feb-25 18:28N 34°48' E 139°39'512.0
2018-Feb-25 18:00N 34°43' E 139°36'4 7.3
2018-Feb-25 17:26N 34°39' E 139°34'1 1.5
2018-Feb-25 16:55N 34°39' E 139°33'512.0
2018-Feb-25 16:30N 34°37' E 139°27'813.7
2018-Feb-25 15:58N 34°35' E 139°19'613.7
2018-Feb-25 15:30N 34°34' E 139°11'713.9
2018-Feb-25 15:00N 34°32' E 139°03'714.0
2018-Feb-25 14:30N 34°30' E 138°55'714.2
2018-Feb-25 14:00N 34°29' E 138°46'714.2
2018-Feb-25 13:29N 34°28' E 138°38'714.3
2018-Feb-25 13:00N 34°27' E 138°30'715.0
2018-Feb-25 12:30N 34°26' E 138°21'714.8
2018-Feb-25 12:00N 34°24' E 138°12'815.2
2018-Feb-25 11:30N 34°23' E 138°03'815.0
2018-Feb-25 11:00N 34°23' E 137°53'714.7
2018-Feb-25 10:30N 34°23' E 137°45'914.8
2018-Feb-25 09:54N 34°24' E 137°34'815.3
2018-Feb-25 09:22N 34°25' E 137°24'515.0
2018-Feb-25 09:00N 34°25' E 137°17'815.1
2018-Feb-25 08:30N 34°29' E 137°09'713.6
2018-Feb-25 08:00N 34°32' E 137°02'611.2
2018-Feb-25 07:30N 34°37' E 136°58'715.0
2018-Feb-25 07:01N 34°41' E 137°06'814.7
2018-Feb-25 06:28N 34°44' E 137°15'4 0.4
2018-Feb-24 22:19N 34°44' E 137°19'0 0.6
2018-Feb-24 22:00N 34°44' E 137°19'4 7.2
2018-Feb-24 21:28N 34°44' E 137°14'715.0
2018-Feb-24 21:01N 34°41' E 137°06'816.1
2018-Feb-24 20:31N 34°36' E 136°58'612.7
2018-Feb-24 20:00N 34°32' E 137°03'4 8.9
2018-Feb-24 19:30N 34°27' E 137°04'5 9.1
2018-Feb-24 18:59N 34°22' E 137°03'1812.6
2018-Feb-24 17:33N 34°05' E 136°56'1814.2
2018-Feb-24 16:18N 33°51' E 136°43'1515.1
2018-Feb-24 15:18N 33°41' E 136°30'6513.5
2018-Feb-24 10:31N 33°27' E 135°14'217.3
2018-Feb-24 10:25N 33°28' E 135°12'916.6
2018-Feb-24 09:54N 33°35' E 135°07'717.5
2018-Feb-24 09:30N 33°41' E 135°03'917.2
2018-Feb-24 09:00N 33°49' E 134°59'816.8
2018-Feb-24 08:30N 33°57' E 134°56'815.1
2018-Feb-24 08:00N 34°05' E 134°58'713.6
2018-Feb-24 07:30N 34°11' E 134°58'510.4
2018-Feb-24 07:00N 34°17' E 134°58'816.3
2018-Feb-24 06:31N 34°24' E 135°02'917.7
2018-Feb-24 06:00N 34°30' E 135°10'917.4
2018-Feb-24 05:30N 34°36' E 135°17'5 9.4
2018-Feb-24 05:00N 34°41' E 135°18'0 0.4
2018-Feb-24 04:29N 34°41' E 135°17'0 0.0
2018-Feb-24 03:59N 34°41' E 135°17'0 0.1
2018-Feb-24 03:29N 34°41' E 135°17'0 0.1
2018-Feb-24 02:59N 34°41' E 135°17'0 0.1
2018-Feb-24 02:29N 34°41' E 135°17'0 0.1
2018-Feb-24 01:59N 34°41' E 135°17'0 0.0
2018-Feb-24 01:29N 34°41' E 135°17'0 0.0
2018-Feb-24 00:59N 34°41' E 135°17'0 0.0
2018-Feb-24 00:29N 34°41' E 135°17'0 0.0
2018-Feb-23 23:59N 34°41' E 135°17'0 0.0
2018-Feb-23 23:29N 34°41' E 135°17'0 0.1
2018-Feb-23 22:59N 34°41' E 135°17'0 1.0
2018-Feb-23 22:31N 34°41' E 135°18'2 4.9
2018-Feb-23 22:00N 34°39' E 135°18'0 0.4
2018-Feb-23 21:29N 34°38' E 135°18'0 0.0
2018-Feb-23 20:59N 34°38' E 135°18'0 0.0
2018-Feb-23 20:29N 34°38' E 135°18'0 0.0
2018-Feb-23 19:59N 34°38' E 135°18'0 0.0
2018-Feb-23 19:29N 34°38' E 135°18'0 0.0
2018-Feb-23 18:59N 34°38' E 135°18'0 0.0
2018-Feb-23 18:29N 34°38' E 135°18'0 0.0
2018-Feb-23 17:59N 34°38' E 135°18'0 0.0
2018-Feb-23 17:29N 34°38' E 135°18'0 0.0
2018-Feb-23 16:59N 34°38' E 135°18'0 0.0
2018-Feb-23 16:29N 34°38' E 135°18'0 0.0
2018-Feb-23 15:59N 34°38' E 135°18'0 0.0
2018-Feb-23 15:29N 34°38' E 135°18'0 0.0
2018-Feb-23 14:59N 34°38' E 135°18'0 0.0
2018-Feb-23 14:29N 34°38' E 135°18'0 0.0
2018-Feb-23 13:59N 34°38' E 135°18'0 0.0
2018-Feb-23 13:29N 34°38' E 135°18'0 0.0
2018-Feb-23 12:59N 34°38' E 135°18'0 0.0
2018-Feb-23 12:29N 34°38' E 135°18'0 0.0
2018-Feb-23 11:56N 34°38' E 135°18'0 0.0
2018-Feb-23 11:29N 34°38' E 135°18'0 0.1
2018-Feb-23 10:59N 34°38' E 135°18'0 0.0
2018-Feb-23 10:29N 34°38' E 135°18'0 0.0
2018-Feb-23 09:59N 34°38' E 135°18'0 0.0
2018-Feb-23 09:29N 34°38' E 135°18'0 0.1
2018-Feb-23 09:00N 34°38' E 135°18'3 5.5
2018-Feb-23 08:30N 34°36' E 135°16'5 9.7
2018-Feb-23 08:00N 34°35' E 135°10'510.1
2018-Feb-23 07:30N 34°35' E 135°04'815.3
2018-Feb-23 07:00N 34°36' E 134°55'918.7
2018-Feb-23 06:30N 34°32' E 134°45'918.8
2018-Feb-23 06:00N 34°28' E 134°34'919.0
2018-Feb-23 05:30N 34°25' E 134°23'918.0
2018-Feb-23 05:00N 34°24' E 134°12'7314.4
2018-Feb-22 23:55N 34°08' E 132°46'613.6
2018-Feb-22 23:30N 34°05' E 132°40'714.3
2018-Feb-22 23:00N 34°02' E 132°32'713.0
2018-Feb-22 22:30N 34°04' E 132°25'814.9
2018-Feb-22 22:00N 34°11' E 132°20'714.5
2018-Feb-22 21:30N 34°18' E 132°22'2 4.3
2018-Feb-22 21:00N 34°20' E 132°23'0 0.1
2018-Feb-22 20:30N 34°20' E 132°23'0 0.0
2018-Feb-22 20:00N 34°20' E 132°23'0 0.0
2018-Feb-22 19:27N 34°20' E 132°23'0 0.0
2018-Feb-22 19:00N 34°20' E 132°23'0 0.0
2018-Feb-22 18:30N 34°20' E 132°23'0 0.0
2018-Feb-22 18:00N 34°20' E 132°23'0 0.0
2018-Feb-22 17:30N 34°20' E 132°23'0 0.0
2018-Feb-22 17:00N 34°20' E 132°23'0 0.0
2018-Feb-22 16:30N 34°20' E 132°23'0 0.0
2018-Feb-22 16:00N 34°20' E 132°23'0 0.0
2018-Feb-22 15:30N 34°20' E 132°23'0 0.0
2018-Feb-22 14:57N 34°20' E 132°23'0 0.0
2018-Feb-22 14:30N 34°20' E 132°23'0 0.0
2018-Feb-22 14:00N 34°20' E 132°23'0 0.0
2018-Feb-22 13:30N 34°20' E 132°23'0 0.0
2018-Feb-22 13:00N 34°20' E 132°23'0 0.0
2018-Feb-22 12:30N 34°20' E 132°23'0 0.0
2018-Feb-22 12:00N 34°20' E 132°23'0 0.0
2018-Feb-22 11:27N 34°20' E 132°23'0 0.0
2018-Feb-22 11:00N 34°20' E 132°23'0 0.0
2018-Feb-22 10:30N 34°20' E 132°23'0 0.0
2018-Feb-22 09:54N 34°20' E 132°23'0 0.0
2018-Feb-22 09:30N 34°20' E 132°23'0 0.0
2018-Feb-22 09:00N 34°20' E 132°23'0 0.0
2018-Feb-22 08:30N 34°20' E 132°23'0 0.0
2018-Feb-22 08:00N 34°20' E 132°23'0 0.0
2018-Feb-22 07:30N 34°20' E 132°23'0 0.0
2018-Feb-22 07:00N 34°20' E 132°23'0 0.0
2018-Feb-22 06:30N 34°20' E 132°23'0 0.0
2018-Feb-22 06:00N 34°20' E 132°23'0 0.0
2018-Feb-22 05:30N 34°20' E 132°23'0 0.0
2018-Feb-22 05:00N 34°20' E 132°23'0 0.0
2018-Feb-22 04:30N 34°20' E 132°23'0 0.0
2018-Feb-22 04:00N 34°20' E 132°23'0 0.1
2018-Feb-22 03:30N 34°20' E 132°23'0 0.0
2018-Feb-22 03:00N 34°20' E 132°23'0 0.0
2018-Feb-22 02:30N 34°20' E 132°23'0 0.1
2018-Feb-22 02:00N 34°20' E 132°23'0 0.0
2018-Feb-22 01:30N 34°20' E 132°23'0 0.0
2018-Feb-22 01:00N 34°20' E 132°23'0 0.0
2018-Feb-22 00:30N 34°20' E 132°23'0 0.0
2018-Feb-22 00:00N 34°20' E 132°23'0 0.1
2018-Feb-21 23:30N 34°20' E 132°23'0 0.0
2018-Feb-21 23:00N 34°20' E 132°23'0 0.0
2018-Feb-21 22:30N 34°20' E 132°23'0 0.0
2018-Feb-21 22:00N 34°20' E 132°23'0 0.0
2018-Feb-21 21:30N 34°20' E 132°23'0 0.0
2018-Feb-21 21:00N 34°20' E 132°23'0 0.0
2018-Feb-21 20:30N 34°20' E 132°23'0 0.0
2018-Feb-21 20:00N 34°20' E 132°23'0 0.0
2018-Feb-21 19:30N 34°20' E 132°23'0 0.0
2018-Feb-21 19:00N 34°20' E 132°23'0 0.0
2018-Feb-21 18:30N 34°20' E 132°23'0 0.0
2018-Feb-21 18:00N 34°20' E 132°23'0 0.0
2018-Feb-21 17:30N 34°20' E 132°23'0 0.0
2018-Feb-21 17:00N 34°20' E 132°23'0 0.0
2018-Feb-21 16:30N 34°20' E 132°23'0 0.0
2018-Feb-21 16:00N 34°20' E 132°23'0 0.0
2018-Feb-21 15:30N 34°20' E 132°23'0 0.0
2018-Feb-21 15:00N 34°20' E 132°23'0 0.0
2018-Feb-21 14:30N 34°20' E 132°23'0 0.0
2018-Feb-21 14:00N 34°20' E 132°23'0 0.0
2018-Feb-21 13:30N 34°20' E 132°23'0 0.0
2018-Feb-21 13:00N 34°20' E 132°23'0 0.0
2018-Feb-21 12:30N 34°20' E 132°23'0 0.0
2018-Feb-21 12:00N 34°20' E 132°23'0 0.0
2018-Feb-21 11:30N 34°20' E 132°23'0 0.0
2018-Feb-21 11:00N 34°20' E 132°23'0 0.0
2018-Feb-21 10:30N 34°20' E 132°23'0 0.1
2018-Feb-21 10:00N 34°20' E 132°23'0 0.0
2018-Feb-21 09:30N 34°20' E 132°23'0 0.0
2018-Feb-21 09:00N 34°20' E 132°23'0 0.1
2018-Feb-21 08:30N 34°20' E 132°23'0 0.0
2018-Feb-21 08:00N 34°20' E 132°23'0 0.1
2018-Feb-21 07:30N 34°20' E 132°23'0 0.0
2018-Feb-21 07:00N 34°20' E 132°23'0 0.0
2018-Feb-21 06:30N 34°20' E 132°23'0 0.1
2018-Feb-21 06:00N 34°20' E 132°23'0 0.0
2018-Feb-21 05:30N 34°20' E 132°23'0 0.0
2018-Feb-21 05:00N 34°20' E 132°23'0 0.0
2018-Feb-21 04:30N 34°20' E 132°23'0 0.1
2018-Feb-21 03:57N 34°20' E 132°23'1 2.2
2018-Feb-21 03:30N 34°21' E 132°22'0 0.4
2018-Feb-21 02:59N 34°21' E 132°22'0 0.0
2018-Feb-21 02:29N 34°21' E 132°22'0 0.0
2018-Feb-21 01:59N 34°21' E 132°22'0 0.0
2018-Feb-21 01:29N 34°21' E 132°22'0 0.0
2018-Feb-21 00:59N 34°21' E 132°22'0 0.0
2018-Feb-21 00:29N 34°21' E 132°22'0 0.0
2018-Feb-20 23:59N 34°21' E 132°22'0 0.0
2018-Feb-20 23:29N 34°21' E 132°22'0 0.0
2018-Feb-20 22:59N 34°21' E 132°22'0 0.0
2018-Feb-20 22:29N 34°21' E 132°22'0 0.0
2018-Feb-20 21:59N 34°21' E 132°22'0 0.2
2018-Feb-20 21:31N 34°21' E 132°22'1 2.4
2018-Feb-20 20:58N 34°20' E 132°23'0 0.0
2018-Feb-20 20:28N 34°20' E 132°23'0 0.0
2018-Feb-20 19:58N 34°20' E 132°23'0 0.0
2018-Feb-20 19:28N 34°20' E 132°23'0 0.0
2018-Feb-20 18:58N 34°20' E 132°23'0 0.0
2018-Feb-20 18:28N 34°20' E 132°23'0 0.0
2018-Feb-20 17:58N 34°20' E 132°23'0 0.0
2018-Feb-20 17:28N 34°20' E 132°23'0 0.0
2018-Feb-20 16:58N 34°20' E 132°23'0 0.0
2018-Feb-20 16:28N 34°20' E 132°23'0 0.0
2018-Feb-20 15:58N 34°20' E 132°23'0 0.0
2018-Feb-20 15:28N 34°20' E 132°23'0 0.0
2018-Feb-20 14:58N 34°20' E 132°23'0 0.0
2018-Feb-20 14:28N 34°20' E 132°23'0 0.0
2018-Feb-20 14:00N 34°20' E 132°23'3 5.7
2018-Feb-20 13:30N 34°17' E 132°21'510.2
2018-Feb-20 13:00N 34°12' E 132°21'4 7.4
2018-Feb-20 12:30N 34°08' E 132°22'1016.9
2018-Feb-20 11:56N 34°01' E 132°30'410.3
2018-Feb-20 11:31N 33°59' E 132°35'714.0
2018-Feb-20 11:01N 33°52' E 132°31'1118.1
2018-Feb-20 10:25N 33°45' E 132°21'818.8
2018-Feb-20 10:00N 33°42' E 132°12'917.9
2018-Feb-20 09:28N 33°42' E 132°01'818.5
2018-Feb-20 09:01N 33°45' E 131°51'918.8
2018-Feb-20 08:30N 33°51' E 131°42'918.0
2018-Feb-20 08:00N 33°57' E 131°35'3 6.8
2018-Feb-20 07:30N 34°00' E 131°34'0 0.0
2018-Feb-20 07:00N 34°00' E 131°34'0 0.0
2018-Feb-20 06:30N 34°00' E 131°34'0 0.0
2018-Feb-20 05:54N 34°00' E 131°34'0 0.0
2018-Feb-20 05:30N 34°00' E 131°34'0 0.0
2018-Feb-20 05:00N 34°00' E 131°34'0 0.0
2018-Feb-20 04:30N 34°00' E 131°34'0 0.0
2018-Feb-20 04:00N 34°00' E 131°34'0 0.0
2018-Feb-20 03:24N 34°00' E 131°34'0 0.0
2018-Feb-20 03:00N 34°00' E 131°34'0 0.0
2018-Feb-20 02:30N 34°00' E 131°34'0 0.0
2018-Feb-20 02:00N 34°00' E 131°34'0 0.0
2018-Feb-20 01:30N 34°00' E 131°34'0 0.0
2018-Feb-20 01:00N 34°00' E 131°34'0 0.0
2018-Feb-20 00:30N 34°00' E 131°34'0 0.0
2018-Feb-20 00:00N 34°00' E 131°34'0 0.0
2018-Feb-19 23:30N 34°00' E 131°34'0 0.0
2018-Feb-19 22:42N 34°00' E 131°34'0 0.0
2018-Feb-19 22:30N 34°00' E 131°34'0 0.5
2018-Feb-19 22:00N 34°00' E 131°34'3 6.4
2018-Feb-19 21:30N 33°57' E 131°33'510.8
2018-Feb-19 21:00N 33°54' E 131°38'510.9
2018-Feb-19 20:30N 33°51' E 131°44'611.8
2018-Feb-19 20:00N 33°48' E 131°50'612.8
2018-Feb-19 19:30N 33°44' E 131°56'713.3
2018-Feb-19 19:00N 33°42' E 132°04'813.5
2018-Feb-19 18:26N 33°43' E 132°13'614.3
2018-Feb-19 17:59N 33°45' E 132°20'714.3
2018-Feb-19 17:30N 33°50' E 132°27'815.0
2018-Feb-19 17:00N 33°54' E 132°34'612.6
2018-Feb-19 16:30N 34°01' E 132°34'713.5
2018-Feb-19 15:58N 34°03' E 132°26'714.6
2018-Feb-19 15:31N 34°09' E 132°21'714.1
2018-Feb-19 15:00N 34°16' E 132°21'510.2
2018-Feb-19 14:30N 34°20' E 132°25'2 4.2
2018-Feb-19 13:55N 34°20' E 132°28'0 0.0
2018-Feb-19 13:25N 34°20' E 132°28'0 0.1
2018-Feb-19 12:56N 34°20' E 132°28'0 0.0
2018-Feb-19 11:43N 34°20' E 132°28'0 0.0
2018-Feb-19 11:30N 34°20' E 132°28'0 0.0
2018-Feb-19 11:00N 34°20' E 132°28'0 0.0
2018-Feb-19 10:30N 34°20' E 132°28'0 0.0
2018-Feb-19 10:01N 34°20' E 132°28'0 0.1
2018-Feb-19 09:12N 34°20' E 132°28'0 0.0
2018-Feb-19 09:00N 34°20' E 132°28'0 0.2
2018-Feb-19 08:30N 34°20' E 132°28'2 0.2
2018-Feb-18 22:36N 34°21' E 132°29'0 0.6
2018-Feb-18 22:29N 34°21' E 132°29'1 2.3
2018-Feb-18 22:00N 34°20' E 132°28'3 6.1
2018-Feb-18 21:30N 34°20' E 132°25'4 8.5
2018-Feb-18 21:00N 34°16' E 132°21'5 9.9
2018-Feb-18 20:30N 34°12' E 132°20'612.0
2018-Feb-18 20:00N 34°06' E 132°24'713.1
2018-Feb-18 19:29N 34°01' E 132°29'510.6
2018-Feb-18 18:58N 33°58' E 132°34'612.0
2018-Feb-18 18:29N 33°53' E 132°31'714.1
2018-Feb-18 17:59N 33°47' E 132°26'714.0
2018-Feb-18 17:30N 33°42' E 132°21'1015.6
2018-Feb-18 16:52N 33°35' E 132°12'615.5
2018-Feb-18 16:30N 33°31' E 132°07'815.1
2018-Feb-18 16:00N 33°26' E 132°01'714.1
2018-Feb-18 15:30N 33°19' E 131°60'611.1
2018-Feb-18 14:56N 33°12' E 132°01'2 5.4
2018-Feb-18 14:30N 33°11' E 132°03'5 9.1
2018-Feb-18 13:56N 33°08' E 132°08'4 8.6
2018-Feb-18 13:29N 33°07' E 132°13'1211.3
2018-Feb-18 12:24N 32°55' E 132°18'22414.1
2018-Feb-17 20:28N 33°29' E 136°43'8916.8
2018-Feb-17 15:11N 34°12' E 138°16'813.2
2018-Feb-17 14:36N 34°16' E 138°24'312.5
2018-Feb-17 14:24N 34°17' E 138°27'612.4
2018-Feb-17 13:56N 34°20' E 138°33'612.1
2018-Feb-17 13:29N 34°23' E 138°39'612.3
2018-Feb-17 13:00N 34°25' E 138°45'611.7
2018-Feb-17 12:27N 34°28' E 138°52'512.0
2018-Feb-17 12:00N 34°31' E 138°58'612.0
2018-Feb-17 11:30N 34°34' E 139°04'713.7
2018-Feb-17 11:00N 34°37' E 139°11'713.8
2018-Feb-17 10:30N 34°37' E 139°20'713.6
2018-Feb-17 10:00N 34°37' E 139°28'714.4
2018-Feb-17 09:30N 34°43' E 139°33'815.9
2018-Feb-17 09:00N 34°50' E 139°37'816.6
2018-Feb-17 08:30N 34°58' E 139°40'816.9
2018-Feb-17 08:01N 35°06' E 139°43'613.0
2018-Feb-17 07:31N 35°12' E 139°46'510.9
2018-Feb-17 07:00N 35°18' E 139°44'612.2
2018-Feb-17 06:30N 35°23' E 139°42'5 9.1
2018-Feb-17 06:01N 35°28' E 139°42'1 1.4
2018-Feb-17 05:30N 35°28' E 139°41'0 0.0
2018-Feb-17 05:00N 35°28' E 139°41'0 0.0
2018-Feb-17 04:29N 35°28' E 139°41'0 0.0
2018-Feb-17 03:59N 35°28' E 139°41'0 0.0
2018-Feb-17 03:29N 35°28' E 139°41'0 0.0
2018-Feb-17 02:59N 35°28' E 139°41'0 0.0
2018-Feb-17 02:29N 35°28' E 139°41'0 0.0
2018-Feb-17 01:59N 35°28' E 139°41'0 0.0
2018-Feb-17 01:29N 35°28' E 139°41'0 0.0
2018-Feb-17 00:59N 35°28' E 139°41'0 0.0
2018-Feb-17 00:29N 35°28' E 139°41'0 0.0
2018-Feb-16 23:59N 35°28' E 139°41'0 0.0
2018-Feb-16 23:29N 35°28' E 139°41'0 0.0
2018-Feb-16 22:59N 35°28' E 139°41'0 0.0
2018-Feb-16 22:29N 35°28' E 139°41'0 0.0
2018-Feb-16 21:59N 35°28' E 139°41'0 0.0
2018-Feb-16 21:29N 35°28' E 139°41'0 0.0
2018-Feb-16 20:59N 35°28' E 139°41'0 0.0
2018-Feb-16 20:29N 35°28' E 139°41'0 0.0
2018-Feb-16 19:59N 35°28' E 139°41'0 0.0
2018-Feb-16 19:29N 35°28' E 139°41'0 0.0
2018-Feb-16 18:59N 35°28' E 139°41'0 0.0
2018-Feb-16 18:29N 35°28' E 139°41'0 0.0
2018-Feb-16 17:59N 35°28' E 139°41'0 0.0
2018-Feb-16 17:29N 35°28' E 139°41'0 0.0
2018-Feb-16 16:59N 35°28' E 139°41'0 0.0
2018-Feb-16 16:23N 35°28' E 139°41'0 0.0
2018-Feb-16 15:59N 35°28' E 139°41'0 0.0
2018-Feb-16 15:30N 35°28' E 139°41'0 0.0
2018-Feb-16 14:59N 35°28' E 139°41'0 0.0
2018-Feb-16 14:29N 35°28' E 139°41'0 0.0
2018-Feb-16 13:59N 35°28' E 139°41'0 0.0
2018-Feb-16 13:29N 35°28' E 139°41'0 0.0
2018-Feb-16 12:59N 35°28' E 139°41'0 0.0
2018-Feb-16 12:29N 35°28' E 139°41'0 0.0
2018-Feb-16 11:59N 35°28' E 139°41'0 0.0
2018-Feb-16 11:29N 35°28' E 139°41'0 0.0
2018-Feb-16 10:59N 35°28' E 139°41'0 0.0
2018-Feb-16 10:26N 35°28' E 139°41'0 0.0
2018-Feb-16 09:59N 35°28' E 139°41'0 0.0
2018-Feb-16 09:29N 35°28' E 139°41'0 0.0
2018-Feb-16 08:59N 35°28' E 139°41'0 0.0
2018-Feb-16 08:29N 35°28' E 139°41'0 0.0
2018-Feb-16 07:59N 35°28' E 139°41'0 0.0
2018-Feb-16 07:29N 35°28' E 139°41'0 0.0
2018-Feb-16 06:59N 35°28' E 139°41'0 0.0
2018-Feb-16 06:29N 35°28' E 139°41'0 0.0
2018-Feb-16 05:59N 35°28' E 139°41'0 0.0
2018-Feb-16 05:29N 35°28' E 139°41'1 1.7
2018-Feb-16 05:00N 35°28' E 139°42'3 5.7
2018-Feb-16 04:30N 35°26' E 139°45'2 4.5
2018-Feb-16 04:00N 35°24' E 139°46'612.3
2018-Feb-16 03:30N 35°19' E 139°44'612.6
2018-Feb-16 03:00N 35°13' E 139°47'5 9.0
2018-Feb-16 02:30N 35°08' E 139°47'3 6.7
2018-Feb-16 02:00N 35°05' E 139°45'5 9.5
2018-Feb-16 01:30N 35°01' E 139°43'611.3
2018-Feb-16 01:00N 34°55' E 139°41'  

Dump ship's entire track history